Time;durP1;ratioP1;P1;durP2;ratioP2;P2;SDS_P1;SDS_P2;PMS_P1;PMS_P2;Temp;Humidity;BMP_temperature;BMP_pressure;BME280_temperature;BME280_humidity;BME280_pressure;Samples;Min_cycle;Max_cycle;Signal;HPM_P1;HPM_P2
2020/12/14 00:01:06;;;;;;;32.85;18.90;;;;;;;-0.35;89.87;100232.56;1756551;80;21202;-63
2020/12/14 00:03:34;;;;;;;43.05;22.35;;;;;;;-0.36;89.97;100239.89;1734041;82;21175;-64
2020/12/14 00:06:02;;;;;;;39.48;21.30;;;;;;;-0.35;90.00;100239.46;1734022;82;21185;-62
2020/12/14 00:08:30;;;;;;;34.20;17.00;;;;;;;-0.33;89.99;100237.33;1734110;82;21158;-62
2020/12/14 00:11:00;;;;;;;33.02;17.37;;;;;;;-0.32;90.01;100237.78;1734010;82;21532;-66
2020/12/14 00:13:28;;;;;;;38.83;20.43;;;;;;;-0.32;90.03;100240.37;1734176;82;21363;-62
2020/12/14 00:15:56;;;;;;;36.35;19.05;;;;;;;-0.33;90.10;100241.20;1733981;82;22172;-63
2020/12/14 00:18:25;;;;;;;40.08;22.82;;;;;;;-0.35;90.16;100240.32;1734191;82;21139;-62
2020/12/14 00:20:53;;;;;;;39.15;20.40;;;;;;;-0.32;90.11;100239.48;1733998;82;21751;-64
2020/12/14 00:23:20;;;;;;;39.40;20.35;;;;;;;-0.33;90.08;100241.20;1734195;82;21227;-62
2020/12/14 00:25:49;;;;;;;42.58;20.82;;;;;;;-0.34;90.13;100240.78;1734002;82;21202;-63
2020/12/14 00:28:17;;;;;;;39.10;20.55;;;;;;;-0.32;90.23;100245.95;1734047;82;21195;-62
2020/12/14 00:30:45;;;;;;;42.08;20.00;;;;;;;-0.32;90.24;100244.66;1735129;81;21586;-64
2020/12/14 00:33:13;;;;;;;35.98;19.23;;;;;;;-0.30;90.19;100244.25;1760464;81;21152;-62
2020/12/14 00:35:41;;;;;;;43.83;22.58;;;;;;;-0.32;90.12;100238.19;1760311;81;21195;-63
2020/12/14 00:38:10;;;;;;;58.28;26.87;;;;;;;-0.33;90.17;100241.20;1760434;81;21987;-62
2020/12/14 00:40:38;;;;;;;52.75;25.52;;;;;;;-0.35;90.22;100240.75;1760335;81;21604;-62
2020/12/14 00:43:07;;;;;;;50.15;23.05;;;;;;;-0.33;90.29;100248.11;1760313;81;21489;-62
2020/12/14 00:45:35;;;;;;;49.08;25.15;;;;;;;-0.32;90.24;100250.72;1760348;81;21202;-62
2020/12/14 00:48:03;;;;;;;51.30;24.85;;;;;;;-0.33;90.25;100246.38;1760257;81;21611;-63
2020/12/14 00:50:31;;;;;;;43.25;24.23;;;;;;;-0.33;90.31;100248.11;1760416;81;22049;-62
2020/12/14 00:53:00;;;;;;;41.55;21.62;;;;;;;-0.34;90.31;100243.37;1760216;81;21826;-62
2020/12/14 00:55:28;;;;;;;40.38;21.37;;;;;;;-0.32;90.29;100245.55;1760344;81;21603;-61
2020/12/14 00:57:55;;;;;;;42.55;20.57;;;;;;;-0.32;90.28;100249.42;1760202;81;21147;-61
2020/12/14 01:00:23;;;;;;;41.37;21.25;;;;;;;-0.33;90.29;100240.34;1760376;81;21705;-62
2020/12/14 01:02:51;;;;;;;37.23;20.02;;;;;;;-0.37;90.34;100247.20;1767529;81;22211;-63
2020/12/14 01:05:19;;;;;;;42.75;23.20;;;;;;;-0.38;90.37;100237.72;1768511;81;21168;-62
2020/12/14 01:07:47;;;;;;;37.83;20.05;;;;;;;-0.36;90.29;100236.45;1768278;81;21651;-61
2020/12/14 01:10:15;;;;;;;38.83;19.50;;;;;;;-0.36;90.36;100232.13;1768495;81;21602;-62
2020/12/14 01:12:43;;;;;;;40.45;21.68;;;;;;;-0.36;90.42;100240.33;1768517;81;21160;-62
2020/12/14 01:15:11;;;;;;;33.48;16.75;;;;;;;-0.37;90.46;100242.02;1768434;81;21370;-62
2020/12/14 01:17:40;;;;;;;33.83;17.92;;;;;;;-0.37;90.45;100242.02;1768414;81;21635;-61
2020/12/14 01:20:08;;;;;;;34.38;18.35;;;;;;;-0.36;90.42;100238.60;1768448;81;21717;-62
2020/12/14 01:22:37;;;;;;;38.67;20.70;;;;;;;-0.37;90.43;100231.67;1768457;80;21260;-64
2020/12/14 01:25:07;;;;;;;40.92;22.32;;;;;;;-0.38;90.46;100236.42;1768640;81;21547;-63
2020/12/14 01:27:35;;;;;;;37.20;19.85;;;;;;;-0.40;90.55;100240.72;1768526;81;21208;-64
2020/12/14 01:30:03;;;;;;;37.75;18.82;;;;;;;-0.37;90.51;100233.41;1768255;81;21172;-62
2020/12/14 01:32:31;;;;;;;37.42;21.00;;;;;;;-0.36;90.48;100234.72;1768462;80;21143;-63
2020/12/14 01:34:59;;;;;;;43.30;21.50;;;;;;;-0.37;90.59;100235.55;1768370;81;21199;-62
2020/12/14 01:37:27;;;;;;;48.00;24.23;;;;;;;-0.39;90.62;100234.70;1768451;81;21681;-63
2020/12/14 01:39:58;;;;;;;43.83;21.95;;;;;;;-0.39;90.60;100237.30;1768344;80;22376;-62
2020/12/14 01:42:26;;;;;;;37.55;19.82;;;;;;;-0.38;90.59;100237.72;1768323;81;21167;-63
2020/12/14 01:44:54;;;;;;;34.35;18.25;;;;;;;-0.37;90.54;100234.27;1768317;81;21179;-62
2020/12/14 01:47:37;;;;;;;45.70;23.35;;;;;;;-0.38;90.57;100231.68;1768471;81;21111;-62
2020/12/14 01:50:08;;;;;;;33.73;17.85;;;;;;;-0.38;90.66;100229.95;1768669;81;21176;-62
2020/12/14 01:52:36;;;;;;;39.15;19.50;;;;;;;-0.38;90.68;100227.37;1768661;81;21351;-62
2020/12/14 01:55:04;;;;;;;36.13;19.42;;;;;;;-0.37;90.53;100232.97;1738507;81;21140;-62
2020/12/14 01:59:27;;;;;;;36.73;18.70;;;;;;;-0.34;90.54;100226.55;1810720;78;22768;-63
2020/12/14 02:01:54;;;;;;;36.80;19.17;;;;;;;-0.39;90.56;100228.23;1779347;80;21132;-65
2020/12/14 02:04:23;;;;;;;37.95;19.35;;;;;;;-0.40;90.63;100229.06;1769717;81;22263;-63
2020/12/14 02:06:51;;;;;;;35.10;18.30;;;;;;;-0.41;90.63;100231.23;1769206;81;21207;-62
2020/12/14 02:09:19;;;;;;;32.70;18.80;;;;;;;-0.40;90.54;100232.95;1769551;81;21167;-63
2020/12/14 02:11:47;;;;;;;37.85;20.08;;;;;;;-0.42;90.59;100232.06;1739223;81;21199;-63
2020/12/14 02:14:15;;;;;;;33.88;18.25;;;;;;;-0.43;90.69;100223.87;1769428;79;21663;-63
2020/12/14 02:16:43;;;;;;;34.48;17.37;;;;;;;-0.44;90.68;100226.90;1769404;81;21449;-62
2020/12/14 02:19:11;;;;;;;34.63;16.95;;;;;;;-0.42;90.67;100225.59;1769190;81;21255;-62
2020/12/14 02:21:38;;;;;;;32.60;17.23;;;;;;;-0.41;90.70;100223.47;1769382;81;21111;-62
2020/12/14 02:24:22;;;;;;;35.30;18.90;;;;;;;-0.43;90.66;100229.05;1769362;81;21844;-63
2020/12/14 02:26:50;;;;;;;35.78;17.37;;;;;;;-0.44;90.71;100232.47;1769217;81;21147;-63
2020/12/14 02:29:19;;;;;;;34.38;18.37;;;;;;;-0.45;90.72;100231.62;1769501;81;21603;-64
2020/12/14 02:31:47;;;;;;;28.65;14.93;;;;;;;-0.42;90.70;100235.95;1769121;79;21159;-62
2020/12/14 02:34:14;;;;;;;33.20;17.87;;;;;;;-0.41;90.60;100229.94;1769469;81;21191;-63
2020/12/14 02:36:42;;;;;;;39.27;17.45;;;;;;;-0.41;90.63;100232.52;1769110;79;21183;-62
2020/12/14 02:39:10;;;;;;;35.35;17.85;;;;;;;-0.44;90.74;100232.47;1769358;79;21171;-63
2020/12/14 02:41:38;;;;;;;34.63;17.15;;;;;;;-0.44;90.78;100227.30;1769252;81;21223;-62
2020/12/14 02:44:09;;;;;;;;;;;;;;;-0.41;90.69;100222.17;1772069;81;21203;-63
2020/12/14 02:46:36;;;;;;;33.50;18.42;;;;;;;-0.40;90.64;100230.36;1769196;79;20287;-63
2020/12/14 02:49:04;;;;;;;37.28;18.05;;;;;;;-0.42;90.70;100230.77;1769276;81;21143;-62
2020/12/14 02:51:32;;;;;;;38.35;20.70;;;;;;;-0.41;90.74;100231.23;1769389;81;21667;-63
2020/12/14 02:54:00;;;;;;;31.33;16.85;;;;;;;-0.38;90.62;100236.42;1769254;81;21216;-64
2020/12/14 02:56:28;;;;;;;31.42;15.85;;;;;;;-0.37;90.50;100236.84;1769282;81;21607;-63
2020/12/14 02:58:56;;;;;;;34.45;19.02;;;;;;;-0.37;90.51;100238.58;1765848;81;21127;-62
2020/12/14 03:01:23;;;;;;;41.23;21.48;;;;;;;-0.40;90.41;100234.25;1765575;81;21207;-63
2020/12/14 03:03:51;;;;;;;40.65;21.82;;;;;;;-0.40;90.49;100239.42;1766193;81;21151;-63
2020/12/14 03:06:19;;;;;;;34.18;18.15;;;;;;;-0.38;90.49;100236.86;1766424;81;21680;-62
2020/12/14 03:08:48;;;;;;;37.15;18.25;;;;;;;-0.37;90.43;100236.84;1766067;81;21160;-64
2020/12/14 03:11:16;;;;;;;36.10;19.55;;;;;;;-0.39;90.43;100232.12;1765817;81;21135;-63
2020/12/14 03:13:47;;;;;;;31.93;15.90;;;;;;;-0.39;90.40;100235.10;1765860;80;21587;-64
2020/12/14 03:16:17;;;;;;;31.60;16.30;;;;;;;-0.42;90.32;100225.59;1765935;80;21135;-64
2020/12/14 03:18:45;;;;;;;23.57;14.05;;;;;;;-0.42;90.17;100229.48;1766219;79;21369;-64
2020/12/14 03:21:14;;;;;;;29.80;17.70;;;;;;;-0.41;90.07;100229.94;1765900;81;21644;-65
2020/12/14 03:23:42;;;;;;;37.28;18.95;;;;;;;-0.42;90.15;100228.19;1765933;81;21654;-63
2020/12/14 03:26:18;;;;;;;45.67;22.32;;;;;;;-0.43;90.17;100226.47;1765873;81;21190;-65
2020/12/14 03:28:49;;;;;;;39.65;19.52;;;;;;;-0.44;90.21;100224.72;1765996;81;21131;-63
2020/12/14 03:31:16;;;;;;;38.13;19.98;;;;;;;-0.41;90.17;100226.05;1766027;80;22182;-63
2020/12/14 03:33:44;;;;;;;34.63;19.30;;;;;;;-0.42;90.15;100225.59;1765764;81;21575;-63
2020/12/14 03:36:12;;;;;;;38.08;20.25;;;;;;;-0.41;90.22;100227.35;1765937;81;21154;-63
2020/12/14 03:38:40;;;;;;;41.13;22.55;;;;;;;-0.43;90.26;100221.29;1765667;81;21154;-63
2020/12/14 03:41:08;;;;;;;36.38;19.12;;;;;;;-0.43;90.27;100225.17;1765641;81;21214;-63
2020/12/14 03:43:36;;;;;;;35.38;18.73;;;;;;;-0.41;90.19;100231.23;1765855;81;21301;-64
2020/12/14 03:46:03;;;;;;;34.20;17.92;;;;;;;-0.40;90.18;100232.95;1765445;81;21174;-63
2020/12/14 03:48:31;;;;;;;37.45;20.20;;;;;;;-0.44;90.06;100222.12;1765840;80;21174;-63
2020/12/14 03:51:00;;;;;;;34.65;19.42;;;;;;;-0.44;90.15;100224.72;1765557;81;21202;-63
2020/12/14 03:53:28;;;;;;;35.28;16.67;;;;;;;-0.44;90.18;100229.89;1765837;81;21162;-64
2020/12/14 03:55:56;;;;;;;32.28;15.78;;;;;;;-0.42;90.11;100234.66;1765650;81;22364;-63
2020/12/14 03:58:24;;;;;;;37.38;18.57;;;;;;;-0.42;90.06;100232.06;1770774;80;21205;-63
2020/12/14 04:00:52;;;;;;;37.17;18.73;;;;;;;-0.39;90.15;100234.70;1776562;79;21500;-65
2020/12/14 04:03:22;;;;;;;35.78;18.32;;;;;;;-0.41;90.05;100232.52;1758017;81;21733;-66
2020/12/14 04:05:50;;;;;;;32.33;16.57;;;;;;;-0.44;90.08;100231.18;1757893;81;21670;-64
2020/12/14 04:08:18;;;;;;;29.42;16.27;;;;;;;-0.43;89.95;100229.05;1758064;81;21584;-64
2020/12/14 04:10:45;;;;;;;36.38;17.73;;;;;;;-0.44;89.82;100232.47;1757826;81;21164;-65
2020/12/14 04:13:17;;;;;;;33.23;17.15;;;;;;;-0.50;89.84;100235.89;1758064;81;21612;-65
2020/12/14 04:15:44;;;;;;;31.20;17.62;;;;;;;-0.49;89.93;100247.09;1757999;81;21627;-62
2020/12/14 04:18:13;;;;;;;25.75;15.43;;;;;;;-0.49;89.93;100244.51;1757971;81;21177;-63
2020/12/14 04:20:41;;;;;;;32.42;17.45;;;;;;;-0.48;89.87;100246.27;1757732;80;21287;-64
2020/12/14 04:23:08;;;;;;;40.43;20.68;;;;;;;-0.51;89.91;100242.33;1757845;80;21204;-63
2020/12/14 04:25:36;;;;;;;35.48;19.50;;;;;;;-0.52;89.95;100245.78;1758045;81;21165;-63
2020/12/14 04:28:05;;;;;;;31.90;16.35;;;;;;;-0.51;89.98;100250.09;1757770;81;21368;-65
2020/12/14 04:30:33;;;;;;;26.12;14.63;;;;;;;-0.49;89.87;100252.27;1757971;81;21205;-63
2020/12/14 04:33:01;;;;;;;33.73;16.55;;;;;;;-0.49;89.86;100247.09;1757870;81;22176;-63
2020/12/14 04:35:29;;;;;;;35.30;19.62;;;;;;;-0.50;89.92;100248.83;1758079;81;21643;-64
2020/12/14 04:37:56;;;;;;;34.33;17.00;;;;;;;-0.52;89.94;100249.66;1757834;81;21188;-63
2020/12/14 04:40:28;;;;;;;31.85;16.15;;;;;;;-0.53;89.84;100258.26;1758029;81;21575;-65
2020/12/14 04:45:37;;;;;;;27.23;15.00;;;;;;;-0.45;89.79;100260.51;1818864;78;23343;-65
2020/12/14 04:48:07;;;;;;;39.38;19.52;;;;;;;-0.50;89.83;100258.31;1775814;80;21527;-65
2020/12/14 04:50:34;;;;;;;36.70;19.87;;;;;;;-0.51;89.87;100263.03;1721498;80;21198;-63
2020/12/14 04:53:04;;;;;;;37.03;20.10;;;;;;;-0.50;89.87;100260.90;1775687;80;21613;-65
2020/12/14 04:55:36;;;;;;;36.20;18.07;;;;;;;-0.47;89.82;100260.92;1775907;80;21131;-63
2020/12/14 04:58:07;;;;;;;37.00;17.12;;;;;;;-0.48;89.80;100270.84;1775649;79;21142;-65
2020/12/14 05:00:36;;;;;;;42.98;20.43;;;;;;;-0.50;89.81;100267.37;1775884;80;21578;-64
2020/12/14 05:03:05;;;;;;;32.33;18.10;;;;;;;-0.50;89.79;100268.66;1771804;80;21155;-64
2020/12/14 05:05:34;;;;;;;28.15;15.25;;;;;;;-0.47;89.71;100272.56;1771602;81;22541;-66
2020/12/14 05:08:04;;;;;;;37.85;18.75;;;;;;;-0.51;89.71;100264.32;1771644;81;21123;-63
2020/12/14 05:10:33;;;;;;;39.50;20.08;;;;;;;-0.48;89.75;100272.99;1771721;81;21713;-63
2020/12/14 05:13:05;;;;;;;37.83;19.27;;;;;;;-0.51;89.74;100280.70;1771517;79;21191;-63
2020/12/14 05:15:34;;;;;;;33.95;17.52;;;;;;;-0.48;89.69;100283.78;1742934;81;21666;-63
2020/12/14 05:18:16;;;;;;;37.30;17.85;;;;;;;-0.49;89.61;100291.08;1689176;81;21206;-63
2020/12/14 05:20:59;;;;;;;34.03;16.70;;;;;;;-0.52;89.59;100289.33;1771800;81;21149;-63
2020/12/14 05:23:28;;;;;;;42.85;19.85;;;;;;;-0.52;89.61;100295.80;1771704;81;21135;-64
2020/12/14 05:26:12;;;;;;;37.23;17.67;;;;;;;-0.52;89.67;100300.11;1771582;81;21202;-69
2020/12/14 05:28:40;;;;;;;41.15;19.90;;;;;;;-0.49;89.65;100298.84;1771706;81;21159;-65
2020/12/14 05:31:19;;;;;;;40.28;19.90;;;;;;;-0.47;89.62;100302.31;1771559;81;21631;-64
2020/12/14 05:33:47;;;;;;;35.90;17.82;;;;;;;-0.46;89.66;100304.03;1771481;81;21618;-64
2020/12/14 05:36:16;;;;;;;39.10;19.75;;;;;;;-0.47;89.63;100298.44;1771769;79;21611;-63
2020/12/14 05:38:44;;;;;;;37.03;18.98;;;;;;;-0.47;89.59;100298.44;1771575;81;21139;-63
2020/12/14 05:41:12;;;;;;;42.15;20.15;;;;;;;-0.47;89.45;100291.97;1771648;81;21386;-63
2020/12/14 05:43:40;;;;;;;38.70;19.82;;;;;;;-0.48;89.53;100298.01;1740618;81;21182;-63
2020/12/14 05:46:15;;;;;;;45.70;21.65;;;;;;;-0.49;89.59;100298.84;1739654;81;21671;-63
2020/12/14 05:48:43;;;;;;;35.75;17.85;;;;;;;-0.49;89.59;100297.55;1761046;81;21572;-64
2020/12/14 05:51:13;;;;;;;42.70;21.07;;;;;;;-0.48;89.57;100301.89;1761169;81;21200;-63
2020/12/14 05:53:53;;;;;;;35.28;20.10;;;;;;;-0.48;89.55;100304.04;1760985;81;21204;-63
2020/12/14 05:56:21;;;;;;;38.85;20.88;;;;;;;-0.49;89.55;100310.05;1760662;81;21283;-64
2020/12/14 05:58:52;;;;;;;35.08;19.67;;;;;;;-0.49;89.62;100311.77;1715017;81;21176;-63
2020/12/14 06:01:22;;;;;;;31.85;18.20;;;;;;;-0.50;89.57;100315.23;1732774;82;21243;-65
2020/12/14 06:03:51;;;;;;;35.05;18.77;;;;;;;-0.46;89.55;100307.92;1739075;82;21252;-64
2020/12/14 06:06:19;;;;;;;37.25;19.40;;;;;;;-0.44;89.53;100312.28;1683345;84;21275;-63
2020/12/14 06:09:05;;;;;;;34.58;19.27;;;;;;;-0.45;89.51;100317.00;1667798;85;21172;-63
2020/12/14 06:11:37;;;;;;;35.40;20.25;;;;;;;-0.45;89.54;100310.97;1681335;84;21355;-63
2020/12/14 06:14:05;;;;;;;32.13;16.52;;;;;;;-0.46;89.62;100316.58;1687393;84;21150;-63
2020/12/14 06:16:35;;;;;;;40.70;21.05;;;;;;;-0.42;89.50;100318.75;1679169;85;21221;-64
2020/12/14 06:19:03;;;;;;;40.50;21.25;;;;;;;-0.39;89.51;100329.16;1734099;82;21366;-63
2020/12/14 06:21:47;;;;;;;33.30;16.93;;;;;;;-0.41;89.45;100328.27;1734066;82;21234;-63
2020/12/14 06:24:22;;;;;;;32.98;17.92;;;;;;;-0.43;89.46;100333.41;1734349;81;21172;-63
2020/12/14 06:26:49;;;;;;;34.95;19.32;;;;;;;-0.42;89.57;100340.74;1759394;79;21804;-66
2020/12/14 06:29:33;;;;;;;29.75;16.73;;;;;;;-0.38;89.43;100341.23;1743316;81;21216;-65
2020/12/14 06:32:00;;;;;;;57.13;27.48;;;;;;;-0.37;89.41;100345.53;1696719;82;21228;-67
2020/12/14 06:34:37;;;;;;;38.30;18.02;;;;;;;-0.36;89.38;100347.29;1669395;85;21648;-68
2020/12/14 06:37:04;;;;;;;31.73;16.20;;;;;;;-0.36;89.40;100349.88;1716199;83;21145;-66
2020/12/14 06:39:41;;;;;;;33.53;17.82;;;;;;;-0.36;89.45;100351.17;1757394;79;21147;-67
2020/12/14 06:42:15;;;;;;;32.28;15.32;;;;;;;-0.33;89.38;100350.33;1764382;81;21207;-68
2020/12/14 06:44:49;;;;;;;34.00;18.45;;;;;;;-0.31;89.31;100349.92;1770684;79;21366;-68
2020/12/14 06:47:18;;;;;;;29.95;17.60;;;;;;;-0.33;89.33;100347.31;1781359;80;21610;-67
2020/12/14 06:49:47;;;;;;;33.65;19.05;;;;;;;-0.29;89.39;100350.81;1781576;80;21131;-66
2020/12/14 06:52:36;;;;;;;30.25;17.27;;;;;;;-0.31;89.27;100348.20;1781557;80;21110;-69
2020/12/14 06:55:04;;;;;;;23.60;13.95;;;;;;;-0.28;89.20;100343.05;1781404;80;21171;-67
2020/12/14 06:57:41;;;;;;;27.87;15.98;;;;;;;-0.26;89.08;100343.06;1781343;79;21207;-68
2020/12/14 07:00:09;;;;;;;37.85;19.37;;;;;;;-0.26;89.07;100341.34;1781427;80;21170;-70
2020/12/14 07:02:42;;;;;;;36.23;18.30;;;;;;;-0.23;89.13;100341.39;1781395;80;21658;-71
2020/12/14 07:05:33;;;;;;;30.60;16.45;;;;;;;-0.22;89.08;100344.41;1781634;80;21650;-68
2020/12/14 07:08:02;;;;;;;27.27;17.50;;;;;;;-0.19;88.88;100346.59;1778340;79;21176;-69
2020/12/14 07:10:32;;;;;;;48.38;28.57;;;;;;;-0.22;88.82;100343.55;1777161;80;21226;-69
2020/12/14 07:13:00;;;;;;;33.02;19.02;;;;;;;-0.24;88.85;100346.11;1780348;80;21226;-69
2020/12/14 07:15:33;;;;;;;51.92;26.65;;;;;;;-0.22;88.92;100343.12;1779841;80;21158;-69
2020/12/14 07:18:14;;;;;;;31.97;18.85;;;;;;;-0.19;88.94;100349.18;1781557;80;21627;-69
2020/12/14 07:20:57;;;;;;;38.67;18.55;;;;;;;-0.16;88.83;100353.08;1753899;80;21206;-70
2020/12/14 07:23:26;;;;;;;36.88;20.70;;;;;;;-0.14;88.91;100357.86;1781553;80;21365;-69
2020/12/14 07:25:55;;;;;;;319.75;138.70;;;;;;;-0.13;88.92;100351.84;1753417;80;21202;-71
2020/12/14 07:28:49;;;;;;;49.95;25.43;;;;;;;-0.11;88.94;100358.77;1783735;79;21181;-69
2020/12/14 07:31:20;;;;;;;42.98;22.35;;;;;;;-0.09;88.82;100356.17;1774496;79;21166;-70
2020/12/14 07:33:55;;;;;;;;;;;;;;;-0.07;88.83;100362.23;1781847;79;21122;-71
2020/12/14 07:36:25;;;;;;;90.87;35.08;;;;;;;-0.09;88.51;100356.17;1781256;80;21197;-70
2020/12/14 07:38:56;;;;;;;48.45;26.62;;;;;;;-0.11;88.51;100356.61;1781267;80;21471;-72
2020/12/14 07:41:35;;;;;;;268.03;66.90;;;;;;;-0.07;88.52;100366.13;1832529;78;24510;-69
2020/12/14 07:44:04;;;;;;;38.70;19.32;;;;;;;-0.10;88.41;100368.69;1819925;78;21107;-67
2020/12/14 07:46:35;;;;;;;50.75;26.23;;;;;;;-0.08;88.34;100370.88;1825446;78;21376;-67
2020/12/14 07:49:10;;;;;;;60.60;29.42;;;;;;;-0.08;88.35;100364.40;1824474;78;21634;-68
2020/12/14 07:51:44;;;;;;;76.33;40.05;;;;;;;-0.07;88.38;100370.00;1830456;76;21683;-71
2020/12/14 07:54:18;;;;;;;47.60;24.57;;;;;;;-0.08;88.50;100374.32;1831017;77;21198;-70
2020/12/14 07:56:57;;;;;;;141.50;68.60;;;;;;;-0.06;88.51;100374.34;1829237;77;21128;-71
2020/12/14 07:59:27;;;;;;;67.12;35.40;;;;;;;-0.01;88.52;100377.84;1831255;77;21888;-69
2020/12/14 08:01:56;;;;;;;154.87;54.40;;;;;;;-0.01;88.52;100377.84;1763171;80;21626;-71
2020/12/14 08:04:29;;;;;;;69.42;31.68;;;;;;;0.00;88.51;100382.19;1769078;80;21686;-70
2020/12/14 08:06:58;;;;;;;44.65;21.95;;;;;;;-0.01;88.60;100382.59;1770555;80;21645;-70
2020/12/14 08:09:31;;;;;;;47.38;27.10;;;;;;;0.01;88.25;100386.50;1760476;81;21159;-71
2020/12/14 08:12:00;;;;;;;29.15;16.45;;;;;;;0.01;88.23;100387.80;1764708;80;21216;-71
2020/12/14 08:14:28;;;;;;;33.10;17.90;;;;;;;0.00;87.95;100392.55;1790183;80;21244;-71
2020/12/14 08:16:55;;;;;;;34.15;18.42;;;;;;;-0.05;87.75;100389.02;1771537;78;21147;-69
2020/12/14 08:19:24;;;;;;;29.02;18.32;;;;;;;-0.09;87.77;100393.71;1796522;78;21191;-69
2020/12/14 08:22:02;;;;;;;29.92;17.45;;;;;;;-0.08;87.89;100386.41;1758747;81;21232;-69
2020/12/14 08:24:30;;;;;;;33.63;18.82;;;;;;;-0.03;88.01;100383.42;1764854;80;21356;-70
2020/12/14 08:27:06;;;;;;;30.60;17.35;;;;;;;-0.03;87.95;100378.25;1771671;80;21191;-69
2020/12/14 08:29:35;;;;;;;34.38;19.75;;;;;;;-0.01;88.07;100380.44;1760460;81;21195;-67
2020/12/14 08:32:03;;;;;;;43.28;25.17;;;;;;;0.02;88.07;100373.98;1760497;81;21188;-70
2020/12/14 08:34:37;;;;;;;41.18;21.37;;;;;;;0.04;87.96;100365.80;1760375;81;21167;-72
2020/12/14 08:37:07;;;;;;;39.10;20.70;;;;;;;0.10;87.92;100365.87;1789889;80;21727;-71
2020/12/14 08:39:38;;;;;;;40.60;22.10;;;;;;;0.16;87.87;100367.23;1790209;80;21164;-71
2020/12/14 08:42:11;;;;;;;66.02;28.98;;;;;;;0.19;87.89;100364.66;1785721;80;21202;-70
2020/12/14 08:44:42;;;;;;;54.18;27.27;;;;;;;0.24;87.87;100362.55;1787895;79;21432;-71
2020/12/14 08:47:12;;;;;;;;;;;;;;;0.26;87.75;100363.42;1792179;79;21121;-70
2020/12/14 08:49:43;;;;;;;51.15;22.50;;;;;;;0.27;87.56;100359.53;1785454;79;34563;-71
2020/12/14 08:52:20;;;;;;;59.45;28.25;;;;;;;0.29;87.54;100366.03;1723569;82;21614;-70
2020/12/14 08:54:55;;;;;;;46.15;23.65;;;;;;;0.31;87.61;100361.73;1720982;81;21199;-72
2020/12/14 08:57:28;;;;;;;46.90;24.27;;;;;;;0.30;87.39;100367.75;1716748;82;21213;-70
2020/12/14 09:00:13;;;;;;;48.87;26.67;;;;;;;0.31;87.39;100360.44;1808694;78;23390;-70
2020/12/14 09:02:41;;;;;;;74.17;35.75;;;;;;;0.22;87.14;100359.07;1808189;79;21612;-68
2020/12/14 09:05:19;;;;;;;37.28;21.42;;;;;;;0.20;87.15;100353.43;1783864;79;21397;-67
2020/12/14 09:07:48;;;;;;;85.30;31.90;;;;;;;0.19;87.18;100350.41;1794235;78;21147;-68
2020/12/14 09:10:22;;;;;;;91.22;33.33;;;;;;;0.16;87.21;100347.80;1783527;78;21611;-67
2020/12/14 09:13:04;;;;;;;57.20;25.90;;;;;;;0.15;87.32;100351.67;1807479;79;21151;-67
2020/12/14 09:15:44;;;;;;;67.10;29.05;;;;;;;0.11;87.32;100349.46;1752416;79;21219;-65
2020/12/14 09:18:14;;;;;;;36.23;18.85;;;;;;;0.12;87.43;100343.45;1786932;79;21387;-66
2020/12/14 09:20:42;;;;;;;32.65;17.80;;;;;;;0.14;87.38;100346.92;1750272;80;21687;-66
2020/12/14 09:23:21;;;;;;;30.95;18.50;;;;;;;0.13;87.31;100347.76;1793592;78;21631;-65
2020/12/14 09:25:51;;;;;;;51.45;23.80;;;;;;;0.11;87.12;100345.58;1807449;78;21130;-67
2020/12/14 09:28:19;;;;;;;41.73;23.57;;;;;;;0.09;87.14;100342.14;1814732;79;21178;-66
2020/12/14 09:30:47;;;;;;;38.23;21.30;;;;;;;0.10;87.27;100345.16;1813037;79;21332;-65
2020/12/14 09:33:15;;;;;;;38.78;20.35;;;;;;;0.12;87.24;100335.68;1809036;79;21234;-66
2020/12/14 09:35:44;;;;;;;63.17;27.58;;;;;;;0.12;87.24;100334.38;1814926;79;21147;-65
2020/12/14 09:38:14;;;;;;;57.93;28.10;;;;;;;0.12;87.28;100336.11;1810710;79;21162;-67
2020/12/14 09:40:47;;;;;;;50.00;25.50;;;;;;;0.13;87.37;100338.70;1785063;78;21171;-65
2020/12/14 09:43:17;;;;;;;52.58;25.52;;;;;;;0.13;87.43;100329.63;1787214;79;21369;-66
2020/12/14 09:45:52;;;;;;;63.10;28.47;;;;;;;0.20;87.51;100338.33;1815366;79;22053;-64
2020/12/14 09:48:23;;;;;;;52.25;25.80;;;;;;;0.20;87.37;100334.00;1815367;79;21183;-66
2020/12/14 09:50:52;;;;;;;45.80;24.90;;;;;;;0.16;87.13;100330.97;1815401;79;21179;-66
2020/12/14 09:53:24;;;;;;;60.63;31.68;;;;;;;0.13;87.22;100334.81;1804828;78;21059;-65
2020/12/14 09:56:14;;;;;;;36.43;23.13;;;;;;;0.15;87.34;100340.88;1816107;78;27923;-65
2020/12/14 09:58:43;;;;;;;36.17;20.88;;;;;;;0.19;87.26;100337.46;1805927;79;21699;-66
2020/12/14 10:01:13;;;;;;;48.20;24.57;;;;;;;0.27;86.98;100334.92;1810731;79;21539;-65
2020/12/14 10:03:41;;;;;;;54.40;28.55;;;;;;;0.30;87.10;100337.97;1815398;79;21115;-66
2020/12/14 10:06:13;;;;;;;87.00;41.42;;;;;;;0.31;87.07;100339.72;1815595;79;21598;-66
2020/12/14 10:08:42;;;;;;;98.47;44.80;;;;;;;0.33;87.06;100348.38;1802117;79;21178;-66
2020/12/14 10:11:13;;;;;;;80.95;38.38;;;;;;;0.33;87.05;100348.38;1778849;80;21199;-68
2020/12/14 10:13:40;;;;;;;69.35;31.77;;;;;;;0.38;87.02;100358.34;1771628;81;24736;-64
2020/12/14 10:16:08;;;;;;;36.33;21.55;;;;;;;0.40;86.89;100351.45;1771536;81;22218;-65
2020/12/14 10:18:43;;;;;;;42.23;22.58;;;;;;;0.38;86.56;100360.92;1771639;80;21183;-65
2020/12/14 10:21:24;;;;;;;37.43;18.77;;;;;;;0.41;86.51;100368.72;1840179;78;22795;-66
2020/12/14 10:23:52;;;;;;;29.60;15.83;;;;;;;0.36;86.31;100373.00;1815322;79;21652;-66
2020/12/14 10:26:25;;;;;;;31.10;16.10;;;;;;;0.40;86.46;100377.36;1792736;79;21237;-67
2020/12/14 10:28:58;;;;;;;31.80;16.50;;;;;;;0.39;86.40;100379.48;1766721;80;21178;-65
2020/12/14 10:31:26;;;;;;;29.18;16.35;;;;;;;0.38;86.41;100382.95;1753269;80;21551;-65
2020/12/14 10:33:57;;;;;;;31.77;17.48;;;;;;;0.38;86.29;100384.25;1783321;80;21158;-64
2020/12/14 10:36:29;;;;;;;29.75;18.25;;;;;;;0.37;86.29;100373.45;1783570;80;21170;-65
2020/12/14 10:38:58;;;;;;;26.30;15.72;;;;;;;0.41;86.50;100375.19;1782812;80;21204;-65
2020/12/14 10:41:28;;;;;;;25.05;13.65;;;;;;;0.43;86.36;100376.08;1750785;81;21183;-65
2020/12/14 10:43:59;;;;;;;22.73;13.72;;;;;;;0.46;86.33;100373.94;1747018;80;21187;-66
2020/12/14 10:46:28;;;;;;;36.35;19.95;;;;;;;0.47;86.08;100371.80;1773706;80;21606;-65
2020/12/14 10:48:58;;;;;;;38.25;22.00;;;;;;;0.48;85.97;100370.50;1753974;80;21198;-66
2020/12/14 10:51:26;;;;;;;45.48;23.85;;;;;;;0.52;86.09;100369.67;1783470;80;21474;-67
2020/12/14 10:53:54;;;;;;;46.10;25.55;;;;;;;0.55;86.20;100371.02;1767982;79;21154;-67
2020/12/14 10:56:25;;;;;;;52.33;26.73;;;;;;;0.55;86.29;100364.53;1778802;80;21811;-67
2020/12/14 10:58:56;;;;;;;61.68;30.20;;;;;;;0.55;86.33;100359.75;1779752;80;21205;-66
2020/12/14 11:01:24;;;;;;;54.65;28.35;;;;;;;0.52;86.49;100358.01;1782145;80;21144;-66
2020/12/14 11:03:52;;;;;;;45.17;25.55;;;;;;;0.53;86.55;100355.87;1780837;80;22242;-64
2020/12/14 11:06:22;;;;;;;49.98;26.75;;;;;;;0.55;86.79;100351.58;1780984;80;21195;-66
2020/12/14 11:08:51;;;;;;;52.67;27.93;;;;;;;0.62;86.99;100353.34;1780805;80;21176;-65
2020/12/14 11:11:20;;;;;;;48.05;25.25;;;;;;;0.66;86.83;100353.36;1780714;80;21120;-64
2020/12/14 11:13:49;;;;;;;52.88;27.98;;;;;;;0.69;86.94;100355.96;1780746;80;21144;-65
2020/12/14 11:16:18;;;;;;;53.05;28.73;;;;;;;0.72;86.88;100359.45;1780734;80;21203;-64
2020/12/14 11:18:46;;;;;;;46.08;24.95;;;;;;;0.73;86.78;100364.20;1780412;80;21168;-65
2020/12/14 11:21:16;;;;;;;50.48;26.50;;;;;;;0.75;86.55;100354.72;1781487;80;21211;-63
2020/12/14 11:23:44;;;;;;;50.63;27.48;;;;;;;0.75;86.44;100353.42;1775397;79;21303;-65
2020/12/14 11:26:13;;;;;;;50.90;26.35;;;;;;;0.71;86.25;100351.66;1699896;84;21171;-64
2020/12/14 11:28:40;;;;;;;50.43;25.35;;;;;;;0.65;86.11;100352.94;1711016;83;21276;-65
2020/12/14 11:31:09;;;;;;;55.40;26.57;;;;;;;0.59;86.18;100355.89;1710936;83;21207;-66